createdAt,value
2024-02-10T00:01:40.645Z,96536.22
2024-02-10T00:04:08.041Z,96536.22
2024-02-10T00:06:37.959Z,96539.63
2024-02-10T00:09:07.892Z,96537.88
2024-02-10T00:11:35.531Z,96547.38
2024-02-10T00:14:02.369Z,96543.03
2024-02-10T00:16:30.150Z,96547.28
2024-02-10T00:18:58.821Z,96549.06
2024-02-10T00:21:25.753Z,96538.81
2024-02-10T00:23:52.385Z,96548.38
2024-02-10T00:26:22.505Z,96550.13
2024-02-10T00:28:50.176Z,96560.03
2024-02-10T00:31:16.959Z,96551.31
2024-02-10T00:33:47.744Z,96547.78
2024-02-10T00:36:14.643Z,96546.88
2024-02-10T00:38:41.750Z,96543.38
2024-02-10T00:41:11.047Z,96548.53
2024-02-10T00:43:43.565Z,96545.06
2024-02-10T00:46:11.959Z,96552.72
2024-02-10T00:48:39.242Z,96562.28
2024-02-10T00:51:07.102Z,96567.38
2024-02-10T00:53:37.532Z,96569.03
2024-02-10T00:56:04.417Z,96575.88
2024-02-10T00:58:32.422Z,96577.56
2024-02-10T01:00:59.048Z,96574.03
2024-02-10T01:03:25.781Z,96573.13
2024-02-10T01:05:52.580Z,96572.22
2024-02-10T01:08:19.238Z,96573.88
2024-02-10T01:10:45.896Z,96568.72
2024-02-10T01:13:12.717Z,96572.22
2024-02-10T01:15:44.193Z,96571.38
2024-02-10T01:18:14.018Z,96564.56
2024-02-10T01:20:40.785Z,96576.63
2024-02-10T01:23:09.503Z,96563.72
2024-02-10T01:25:37.537Z,96562.06
2024-02-10T01:28:04.443Z,96568.88
2024-02-10T01:30:31.146Z,96562.88
2024-02-10T01:32:59.864Z,96574.97
2024-02-10T01:35:28.415Z,96574.03
2024-02-10T01:37:57.085Z,96579.22
2024-02-10T01:40:23.824Z,96586.19
2024-02-10T01:42:51.006Z,96586.19
2024-02-10T01:45:19.324Z,96586.19
2024-02-10T01:47:47.326Z,96591.34
2024-02-10T01:50:16.104Z,96603.38
2024-02-10T01:52:44.619Z,96602.47
2024-02-10T01:55:12.120Z,96602.53
2024-02-10T01:57:39.649Z,96609.38
2024-02-10T02:00:07.938Z,96610.22
2024-02-10T02:02:35.154Z,96607.63
2024-02-10T02:05:03.904Z,96612.78
2024-02-10T02:07:31.894Z,96617.97
2024-02-10T02:10:02.177Z,96620.63
2024-02-10T02:12:30.059Z,96619.88
2024-02-10T02:14:58.934Z,96624.22
2024-02-10T02:17:26.262Z,96620.03
2024-02-10T02:19:53.585Z,96623.63
2024-02-10T02:22:22.039Z,96626.38
2024-02-10T02:24:49.156Z,96624.03
2024-02-10T02:27:16.300Z,96632.78
2024-02-10T02:29:43.420Z,96627.84
2024-02-10T02:32:12.037Z,96633.84
2024-02-10T02:34:39.664Z,96633.84
2024-02-10T02:37:08.325Z,96629.50
2024-02-10T02:39:37.331Z,96633.00
2024-02-10T02:42:07.165Z,96628.69
2024-02-10T02:44:34.329Z,96628.69
2024-02-10T02:47:05.868Z,96635.50
2024-02-10T02:49:34.966Z,96628.69
2024-02-10T02:52:02.094Z,96636.50
2024-02-10T02:54:35.911Z,96634.00
2024-02-10T02:57:02.507Z,96635.00
2024-02-10T02:59:29.200Z,96639.31
2024-02-10T03:01:56.311Z,96637.66
2024-02-10T03:04:23.784Z,96652.16
2024-02-10T03:06:52.066Z,96645.34
2024-02-10T03:09:19.626Z,96639.31
2024-02-10T03:11:46.387Z,96649.66
2024-02-10T03:14:16.371Z,96655.66
2024-02-10T03:16:46.867Z,96651.50
2024-02-10T03:19:13.697Z,96644.75
2024-02-10T03:21:40.419Z,96656.97
2024-02-10T03:24:07.338Z,96655.47
2024-02-10T03:29:07.334Z,96644.00
2024-02-10T03:31:34.482Z,96651.09
2024-02-10T03:34:02.902Z,96647.91
2024-02-10T03:36:32.579Z,96651.56
2024-02-10T03:39:04.981Z,96641.53
2024-02-10T03:41:31.741Z,96643.53
2024-02-10T03:43:58.350Z,96643.75
2024-02-10T03:46:25.227Z,96642.31
2024-02-10T03:48:54.071Z,96645.94
2024-02-10T03:51:20.879Z,96651.25
2024-02-10T03:53:47.541Z,96655.72
2024-02-10T03:56:14.135Z,96662.59
2024-02-10T03:58:42.825Z,96678.06
2024-02-10T04:01:17.404Z,96676.34
2024-02-10T04:03:47.209Z,96685.69
2024-02-10T04:06:17.184Z,96677.81
2024-02-10T04:08:48.441Z,96689.31
2024-02-10T04:11:18.924Z,96674.31
2024-02-10T04:13:48.987Z,96680.22
2024-02-10T04:16:16.960Z,96681.06
2024-02-10T04:18:44.249Z,96675.91
2024-02-10T04:21:11.344Z,96678.56
2024-02-10T04:23:41.674Z,96679.56
2024-02-10T04:26:08.731Z,96690.88
2024-02-10T04:28:35.741Z,96690.06
2024-02-10T04:31:03.175Z,96696.13
2024-02-10T04:33:32.400Z,96696.13
2024-02-10T04:35:59.189Z,96704.78
2024-02-10T04:38:26.022Z,96708.25
2024-02-10T04:40:53.158Z,96715.25
2024-02-10T04:43:21.158Z,96718.75
2024-02-10T04:45:50.446Z,96722.19
2024-02-10T04:48:21.472Z,96724.03
2024-02-10T04:50:48.824Z,96724.03
2024-02-10T04:53:17.221Z,96722.38
2024-02-10T04:55:45.960Z,96727.53
2024-02-10T04:58:14.478Z,96729.34
2024-02-10T05:00:42.200Z,96733.66
2024-02-10T05:03:09.055Z,96748.31
2024-02-10T05:05:35.859Z,96752.69
2024-02-10T05:08:02.610Z,96747.53
2024-02-10T05:10:29.407Z,96748.44
2024-02-10T05:12:57.588Z,96731.31
2024-02-10T05:15:26.018Z,96739.25
2024-02-10T05:17:55.324Z,96751.47
2024-02-10T05:23:00.207Z,96754.31
2024-02-10T05:25:36.711Z,96764.75
2024-02-10T05:28:04.140Z,96766.66
2024-02-10T05:33:03.032Z,96769.38
2024-02-10T05:35:31.509Z,96773.84
2024-02-10T05:38:00.918Z,96771.31
2024-02-10T05:40:29.151Z,96770.47
2024-02-10T05:43:00.848Z,96772.28
2024-02-10T05:45:29.294Z,96780.94
2024-02-10T05:47:56.057Z,96779.25
2024-02-10T05:50:24.981Z,96777.59
2024-02-10T05:52:53.752Z,96769.09
2024-02-10T05:55:27.201Z,96780.31
2024-02-10T05:57:57.210Z,96786.50
2024-02-10T06:00:24.466Z,96786.63
2024-02-10T06:02:52.546Z,96787.59
2024-02-10T06:05:19.864Z,96785.09
2024-02-10T06:07:49.742Z,96785.22
2024-02-10T06:10:17.674Z,96792.22
2024-02-10T06:12:50.270Z,96793.22
2024-02-10T06:15:19.051Z,96802.78
2024-02-10T06:17:54.085Z,96805.47
2024-02-10T06:20:24.581Z,96809.88
2024-02-10T06:22:54.282Z,96808.34
2024-02-10T06:25:30.223Z,96801.59
2024-02-10T06:28:00.236Z,96804.34
2024-02-10T06:30:32.073Z,96804.84
2024-02-10T06:32:59.621Z,96808.25
2024-02-10T06:35:27.789Z,96810.09
2024-02-10T06:37:56.352Z,96806.72
2024-02-10T06:40:24.111Z,96810.31
2024-02-10T06:42:51.829Z,96807.06
2024-02-10T06:45:23.458Z,96814.91
2024-02-10T06:47:51.555Z,96809.88
2024-02-10T06:50:25.928Z,96808.34
2024-02-10T06:52:54.513Z,96809.31
2024-02-10T06:55:21.625Z,96815.47
2024-02-10T06:57:54.016Z,96813.84
2024-02-10T07:00:21.145Z,96811.47
2024-02-10T07:02:49.516Z,96818.53
2024-02-10T07:05:18.152Z,96822.97
2024-02-10T07:07:48.194Z,96826.56
2024-02-10T07:10:20.458Z,96826.81
2024-02-10T07:12:49.195Z,96831.31
2024-02-10T07:15:20.940Z,96829.75
2024-02-10T07:17:51.647Z,96834.94
2024-02-10T07:23:01.482Z,96841.97
2024-02-10T07:25:30.475Z,96841.16
2024-02-10T07:28:03.205Z,96841.16
2024-02-10T07:30:32.962Z,96850.63
2024-02-10T07:33:17.968Z,96852.38
2024-02-10T07:35:50.752Z,96854.94
2024-02-10T07:38:22.185Z,96860.03
2024-02-10T07:40:49.099Z,96858.28
2024-02-10T07:43:17.320Z,96862.53
2024-02-10T07:45:45.819Z,96869.28
2024-02-10T07:48:12.695Z,96869.25
2024-02-10T07:50:42.315Z,96873.47
2024-02-10T07:53:15.340Z,96875.16
2024-02-10T07:55:44.298Z,96864.75
2024-02-10T07:58:16.707Z,96878.25
2024-02-10T08:00:44.042Z,96876.47
2024-02-10T08:03:13.320Z,96876.41
2024-02-10T08:05:43.664Z,96877.25
2024-02-10T08:08:12.139Z,96884.09
2024-02-10T08:10:40.436Z,96889.88
2024-02-10T08:13:10.023Z,96892.97
2024-02-10T08:15:37.042Z,96887.44
2024-02-10T08:18:06.607Z,96883.63
2024-02-10T08:20:33.670Z,96891.88
2024-02-10T08:23:00.449Z,96884.66
2024-02-10T08:25:29.596Z,96885.84
2024-02-10T08:27:58.080Z,96892.81
2024-02-10T08:30:25.792Z,96896.28
2024-02-10T08:32:57.006Z,96895.75
2024-02-10T08:35:26.042Z,96900.34
2024-02-10T08:37:52.634Z,96902.81
2024-02-10T08:40:19.402Z,96903.59
2024-02-10T08:42:48.004Z,96905.94
2024-02-10T08:45:16.512Z,96916.84
2024-02-10T08:47:47.045Z,96915.94
2024-02-10T08:50:13.974Z,96909.19
2024-02-10T08:52:41.142Z,96923.00
2024-02-10T08:55:08.652Z,96925.75
2024-02-10T08:57:37.736Z,96925.81
2024-02-10T09:00:06.830Z,96932.06
2024-02-10T09:02:33.705Z,96938.41
2024-02-10T09:05:00.788Z,96929.19
2024-02-10T09:07:27.504Z,96934.41
2024-02-10T09:09:54.260Z,96925.00
2024-02-10T09:12:20.949Z,96930.97
2024-02-10T09:14:48.609Z,96932.00
2024-02-10T09:17:15.331Z,96932.88
2024-02-10T09:19:43.149Z,96931.94
2024-02-10T09:22:12.038Z,96925.06
2024-02-10T09:24:41.309Z,96923.34
2024-02-10T09:27:11.425Z,96921.38
2024-02-10T09:29:38.974Z,96926.13
2024-02-10T09:32:05.989Z,96925.09
2024-02-10T09:34:32.823Z,96936.06
2024-02-10T09:37:00.697Z,96937.47
2024-02-10T09:39:27.725Z,96945.84
2024-02-10T09:42:02.904Z,96945.56
2024-02-10T09:44:31.093Z,96951.47
2024-02-10T09:47:01.860Z,96950.34
2024-02-10T09:49:31.100Z,96960.38
2024-02-10T09:52:00.231Z,96959.19
2024-02-10T09:54:27.290Z,96954.56
2024-02-10T09:56:54.698Z,96961.03
2024-02-10T09:59:26.140Z,96953.00
2024-02-10T10:01:56.298Z,96957.06
2024-02-10T10:04:23.528Z,96956.91
2024-02-10T10:06:51.069Z,96960.38
2024-02-10T10:09:20.295Z,96959.63
2024-02-10T10:11:51.134Z,96960.38
2024-02-10T10:14:18.682Z,96963.75
2024-02-10T10:17:03.902Z,96959.31
2024-02-10T10:19:31.354Z,96965.28
2024-02-10T10:21:59.072Z,96970.56
2024-02-10T10:24:27.155Z,96974.22
2024-02-10T10:26:55.488Z,96976.16
2024-02-10T10:29:23.291Z,96971.00
2024-02-10T10:31:51.639Z,96974.81
2024-02-10T10:34:21.101Z,96970.22
2024-02-10T10:36:50.625Z,96972.75
2024-02-10T10:39:19.069Z,96973.34
2024-02-10T10:41:46.883Z,96968.06
2024-02-10T10:44:16.041Z,96971.47
2024-02-10T10:46:43.826Z,96975.72
2024-02-10T10:49:13.416Z,96983.56
2024-02-10T10:51:53.213Z,96985.22
2024-02-10T10:54:20.747Z,96984.22
2024-02-10T10:56:49.534Z,96984.88
2024-02-10T10:59:18.250Z,96985.47
2024-02-10T11:01:47.090Z,96987.69
2024-02-10T11:04:15.801Z,96985.59
2024-02-10T11:06:45.719Z,96990.44
2024-02-10T11:09:21.857Z,96986.00
2024-02-10T11:11:48.553Z,96988.47
2024-02-10T11:14:15.331Z,96990.16
2024-02-10T11:16:43.867Z,96985.00
2024-02-10T11:19:16.821Z,96991.84
2024-02-10T11:21:44.590Z,96992.69
2024-02-10T11:24:17.904Z,96991.84
2024-02-10T11:26:45.986Z,96998.66
2024-02-10T11:29:20.196Z,96998.66
2024-02-10T11:31:47.475Z,96992.69
2024-02-10T11:34:18.293Z,96991.00
2024-02-10T11:36:57.203Z,96992.69
2024-02-10T11:39:26.253Z,96989.19
2024-02-10T11:41:57.578Z,96986.81
2024-02-10T11:44:27.648Z,96986.81
2024-02-10T11:46:54.994Z,96993.97
2024-02-10T11:49:23.453Z,96989.22
2024-02-10T11:51:54.481Z,96994.97
2024-02-10T11:54:21.235Z,96989.06
2024-02-10T11:56:51.497Z,96997.06
2024-02-10T11:59:18.495Z,96995.69
2024-02-10T12:01:45.413Z,96994.16
2024-02-10T12:04:18.852Z,96992.63
2024-02-10T12:06:47.602Z,96989.28
2024-02-10T12:09:14.237Z,96997.78
2024-02-10T12:11:44.126Z,96994.28
2024-02-10T12:14:15.797Z,97000.09
2024-02-10T12:16:46.577Z,96998.19
2024-02-10T12:19:15.004Z,97000.72
2024-02-10T12:21:43.084Z,97000.72
2024-02-10T12:24:12.574Z,97001.63
2024-02-10T12:26:39.157Z,97000.72
2024-02-10T12:29:12.959Z,96995.53
2024-02-10T12:31:41.476Z,96995.53
2024-02-10T12:34:15.773Z,96993.75
2024-02-10T12:36:42.777Z,97003.78
2024-02-10T12:39:11.672Z,96992.38
2024-02-10T12:41:39.322Z,96994.63
2024-02-10T12:44:07.031Z,96986.28
2024-02-10T12:46:33.825Z,96992.91
2024-02-10T12:49:01.819Z,96991.84
2024-02-10T12:51:33.405Z,97000.66
2024-02-10T12:54:00.887Z,97002.53
2024-02-10T12:56:28.445Z,97003.50
2024-02-10T12:58:58.154Z,96997.47
2024-02-10T13:01:25.764Z,97005.22
2024-02-10T13:03:52.907Z,97005.09
2024-02-10T13:06:20.197Z,97000.78
2024-02-10T13:08:47.256Z,97002.47
2024-02-10T13:11:14.154Z,97005.69
2024-02-10T13:13:46.007Z,97005.38
2024-02-10T13:16:12.854Z,97004.47
2024-02-10T13:18:45.640Z,96994.88
2024-02-10T13:21:18.029Z,96998.38
2024-02-10T13:23:45.427Z,96998.53
2024-02-10T13:26:13.407Z,97002.78
2024-02-10T13:28:43.100Z,97001.88
2024-02-10T13:31:10.951Z,96997.41
2024-02-10T13:33:41.280Z,96999.91
2024-02-10T13:36:09.840Z,97003.41
2024-02-10T13:38:56.849Z,96999.13
2024-02-10T13:41:43.400Z,96997.47
2024-02-10T13:44:29.945Z,97003.34
2024-02-10T13:47:16.528Z,97004.09
2024-02-10T13:50:05.103Z,97001.56
2024-02-10T13:52:53.885Z,97000.06
2024-02-10T13:55:40.442Z,97003.84
2024-02-10T14:00:47.357Z,97008.41
2024-02-10T14:03:15.035Z,96997.16
2024-02-10T14:05:56.498Z,96996.88
2024-02-10T14:08:42.536Z,96991.56
2024-02-10T14:11:14.496Z,96992.69
2024-02-10T14:13:46.920Z,97000.38
2024-02-10T14:16:17.061Z,97006.06
2024-02-10T14:18:45.145Z,97000.19
2024-02-10T14:21:18.913Z,96999.38
2024-02-10T14:23:46.952Z,96996.88
2024-02-10T14:26:16.613Z,97001.78
2024-02-10T14:28:55.215Z,97000.97
2024-02-10T14:31:24.062Z,96996.88
2024-02-10T14:33:54.602Z,97004.47
2024-02-10T14:36:41.893Z,97005.06
2024-02-10T14:39:14.943Z,97005.69
2024-02-10T14:41:44.594Z,97008.50
2024-02-10T14:44:12.001Z,97003.09
2024-02-10T14:46:41.296Z,97007.28
2024-02-10T14:49:08.155Z,97015.13
2024-02-10T14:51:34.926Z,97015.88
2024-02-10T14:54:01.608Z,97014.88
2024-02-10T14:56:32.415Z,97019.97
2024-02-10T14:59:00.507Z,97033.69
2024-02-10T15:01:32.205Z,97030.19
2024-02-10T15:03:59.130Z,97030.25
2024-02-10T15:06:25.989Z,97030.25
2024-02-10T15:08:55.398Z,97042.25
2024-02-10T15:11:23.822Z,97029.19
2024-02-10T15:13:50.579Z,97036.03
2024-02-10T15:16:21.257Z,97035.06
2024-02-10T15:18:52.389Z,97032.47
2024-02-10T15:21:20.863Z,97033.38
2024-02-10T15:23:49.610Z,97034.28
2024-02-10T15:26:18.494Z,97028.19
2024-02-10T15:28:49.218Z,97035.81
2024-02-10T15:31:20.574Z,97036.59
2024-02-10T15:33:48.273Z,97033.94
2024-02-10T15:36:35.003Z,97036.41
2024-02-10T15:39:02.492Z,97030.34
2024-02-10T15:41:33.981Z,97034.59
2024-02-10T15:44:08.583Z,97032.94
2024-02-10T15:46:37.204Z,97030.28
2024-02-10T15:49:04.342Z,97024.19
2024-02-10T15:51:34.361Z,97031.94
2024-02-10T15:54:01.070Z,97028.06
2024-02-10T15:56:27.704Z,97029.44
2024-02-10T15:58:55.723Z,97034.59
2024-02-10T16:01:23.618Z,97037.19
2024-02-10T16:03:50.798Z,97031.25
2024-02-10T16:06:17.763Z,97030.50
2024-02-10T16:08:46.330Z,97021.97
2024-02-10T16:11:15.718Z,97024.72
2024-02-10T16:13:45.826Z,97038.53
2024-02-10T16:16:17.979Z,97024.88
2024-02-10T16:18:47.766Z,97022.34
2024-02-10T16:21:29.237Z,97021.50
2024-02-10T16:23:57.840Z,97019.06
2024-02-10T16:26:24.873Z,97017.41
2024-02-10T16:28:52.908Z,97016.59
2024-02-10T16:31:22.172Z,97027.00
2024-02-10T16:33:50.737Z,97021.97
2024-02-10T16:36:17.510Z,97021.13
2024-02-10T16:38:44.263Z,97025.47
2024-02-10T16:41:14.118Z,97018.59
2024-02-10T16:43:42.353Z,97017.84
2024-02-10T16:46:09.060Z,97024.84
2024-02-10T16:48:37.211Z,97027.50
2024-02-10T16:51:04.848Z,97026.59
2024-02-10T16:53:31.565Z,97030.91
2024-02-10T16:56:02.214Z,97023.25
2024-02-10T16:58:30.877Z,97026.69
2024-02-10T17:00:59.019Z,97024.84
2024-02-10T17:03:27.965Z,97026.59
2024-02-10T17:05:59.237Z,97028.34
2024-02-10T17:08:29.900Z,97036.09
2024-02-10T17:10:57.105Z,97029.41
2024-02-10T17:13:32.041Z,97026.09
2024-02-10T17:15:58.758Z,97034.09
2024-02-10T17:18:25.589Z,97041.06
2024-02-10T17:20:58.427Z,97043.88
2024-02-10T17:23:25.870Z,97047.44
2024-02-10T17:25:55.991Z,97049.28
2024-02-10T17:28:31.669Z,97044.81
2024-02-10T17:30:58.650Z,97048.09
2024-02-10T17:33:25.609Z,97044.69
2024-02-10T17:35:54.205Z,97054.25
2024-02-10T17:38:22.430Z,97058.63
2024-02-10T17:40:49.610Z,97054.44
2024-02-10T17:43:22.362Z,97055.44
2024-02-10T17:45:52.276Z,97059.78
2024-02-10T17:48:22.482Z,97063.38
2024-02-10T17:50:51.045Z,97056.53
2024-02-10T17:53:23.968Z,97057.53
2024-02-10T17:55:55.556Z,97054.16
2024-02-10T17:58:24.179Z,97065.47
2024-02-10T18:00:52.900Z,97074.13
2024-02-10T18:03:22.009Z,97068.28
2024-02-10T18:05:50.383Z,97075.25
2024-02-10T18:08:20.194Z,97073.72
2024-02-10T18:10:48.521Z,97080.84
2024-02-10T18:13:18.082Z,97074.94
2024-02-10T18:15:45.157Z,97078.50
2024-02-10T18:18:12.409Z,97076.06
2024-02-10T18:20:39.613Z,97084.72
2024-02-10T18:23:08.116Z,97084.72
2024-02-10T18:25:36.426Z,97083.06
2024-02-10T18:28:05.296Z,97076.19
2024-02-10T18:30:32.092Z,97081.34
2024-02-10T18:32:59.268Z,97087.44
2024-02-10T18:35:27.565Z,97083.19
2024-02-10T18:37:58.433Z,97080.59
2024-02-10T18:40:28.053Z,97088.47
2024-02-10T18:42:56.105Z,97086.81
2024-02-10T18:45:25.185Z,97082.56
2024-02-10T18:47:52.710Z,97086.94
2024-02-10T18:50:20.209Z,97081.91
2024-02-10T18:52:48.005Z,97082.81
2024-02-10T18:55:16.017Z,97082.81
2024-02-10T18:57:43.372Z,97082.03
2024-02-10T19:00:14.793Z,97075.19
2024-02-10T19:02:42.052Z,97067.50
2024-02-10T19:05:09.282Z,97074.44
2024-02-10T19:07:38.192Z,97077.91
2024-02-10T19:10:11.854Z,97075.47
2024-02-10T19:12:40.060Z,97077.97
2024-02-10T19:15:10.161Z,97076.34
2024-02-10T19:17:39.755Z,97077.25
2024-02-10T19:20:12.312Z,97076.47
2024-02-10T19:22:40.209Z,97079.22
2024-02-10T19:25:10.457Z,97077.50
2024-02-10T19:27:39.868Z,97081.00
2024-02-10T19:30:09.991Z,97080.19
2024-02-10T19:32:41.546Z,97077.69
2024-02-10T19:35:17.592Z,97082.84
2024-02-10T19:37:47.054Z,97076.88
2024-02-10T19:40:16.092Z,97075.16
2024-02-10T19:42:44.324Z,97088.13
2024-02-10T19:45:14.153Z,97088.13
2024-02-10T19:47:42.886Z,97087.28
2024-02-10T19:50:13.173Z,97112.25
2024-02-10T19:52:42.577Z,97114.13
2024-02-10T19:55:11.126Z,97114.25
2024-02-10T19:57:41.587Z,97114.53
2024-02-10T20:00:14.218Z,97118.13
2024-02-10T20:02:43.828Z,97116.56
2024-02-10T20:05:11.379Z,97111.53
2024-02-10T20:07:39.253Z,97111.66
2024-02-10T20:10:06.527Z,97115.16
2024-02-10T20:12:33.194Z,97113.59
2024-02-10T20:15:01.066Z,97111.06
2024-02-10T20:17:32.088Z,97108.44
2024-02-10T20:20:07.997Z,97102.44
2024-02-10T20:22:35.211Z,97113.59
2024-02-10T20:25:04.525Z,97116.16
2024-02-10T20:27:32.538Z,97120.41
2024-02-10T20:30:00.356Z,97131.59
2024-02-10T20:32:27.285Z,97115.25
2024-02-10T20:34:53.956Z,97116.94
2024-02-10T20:37:20.618Z,97117.00
2024-02-10T20:39:49.795Z,97118.75
2024-02-10T20:42:18.380Z,97115.31
2024-02-10T20:44:48.297Z,97111.88
2024-02-10T20:47:15.455Z,97103.28
2024-02-10T20:49:42.251Z,97110.09
2024-02-10T20:52:09.007Z,97112.69
2024-02-10T20:54:36.692Z,97122.09
2024-02-10T20:57:03.606Z,97122.09
2024-02-10T20:59:30.327Z,97127.25
2024-02-10T21:01:57.612Z,97120.41
2024-02-10T21:04:24.498Z,97121.31
2024-02-10T21:06:54.087Z,97117.03
2024-02-10T21:09:26.724Z,97128.22
2024-02-10T21:11:53.411Z,97127.34
2024-02-10T21:14:20.411Z,97123.91
2024-02-10T21:16:48.685Z,97122.19
2024-02-10T21:19:15.742Z,97119.63
2024-02-10T21:21:42.915Z,97128.22
2024-02-10T21:24:10.049Z,97133.38
2024-02-10T21:26:37.834Z,97129.06
2024-02-10T21:29:09.154Z,97135.09
2024-02-10T21:31:37.127Z,97138.47
2024-02-10T21:34:05.899Z,97139.38
2024-02-10T21:36:36.292Z,97128.28
2024-02-10T21:39:22.286Z,97130.38
2024-02-10T21:41:49.026Z,97137.94
2024-02-10T21:44:16.193Z,97128.38
2024-02-10T21:46:43.264Z,97132.66
2024-02-10T21:49:10.008Z,97130.09
2024-02-10T21:51:38.155Z,97127.50
2024-02-10T21:54:07.166Z,97137.81
2024-02-10T21:56:41.696Z,97144.66
2024-02-10T21:59:10.494Z,97142.97
2024-02-10T22:01:37.236Z,97138.69
2024-02-10T22:04:05.340Z,97140.41
2024-02-10T22:06:32.101Z,97137.81
2024-02-10T22:08:59.330Z,97136.97
2024-02-10T22:11:26.400Z,97137.03
2024-02-10T22:13:53.120Z,97135.34
2024-02-10T22:16:19.915Z,97140.50
2024-02-10T22:18:49.903Z,97138.00
2024-02-10T22:21:17.050Z,97139.72
2024-02-10T22:23:43.656Z,97144.13
2024-02-10T22:26:10.360Z,97148.38
2024-02-10T22:28:41.498Z,97151.84
2024-02-10T22:31:09.929Z,97153.56
2024-02-10T22:33:37.322Z,97151.97
2024-02-10T22:36:11.349Z,97149.31
2024-02-10T22:38:41.272Z,97149.38
2024-02-10T22:41:08.344Z,97150.28
2024-02-10T22:43:35.084Z,97152.06
2024-02-10T22:46:06.693Z,97140.09
2024-02-10T22:48:35.547Z,97152.94
2024-02-10T22:51:04.358Z,97146.91
2024-02-10T22:53:34.190Z,97147.81
2024-02-10T22:56:00.888Z,97149.63
2024-02-10T22:58:27.607Z,97146.22
2024-02-10T23:00:54.605Z,97142.84
2024-02-10T23:03:21.493Z,97143.69
2024-02-10T23:05:51.592Z,97141.19
2024-02-10T23:08:21.047Z,97145.47
2024-02-10T23:10:48.593Z,97138.66
2024-02-10T23:13:20.909Z,97142.13
2024-02-10T23:15:52.472Z,97146.44
2024-02-10T23:18:24.913Z,97150.75
2024-02-10T23:20:52.758Z,97149.03
2024-02-10T23:23:22.096Z,97148.13
2024-02-10T23:25:50.526Z,97145.47
2024-02-10T23:28:17.881Z,97148.97
2024-02-10T23:30:52.504Z,97143.81
2024-02-10T23:35:57.599Z,97145.47
2024-02-10T23:38:28.003Z,97150.63
2024-02-10T23:40:56.645Z,97145.47
2024-02-10T23:43:24.847Z,97150.53
2024-02-10T23:45:51.970Z,97151.31
2024-02-10T23:48:20.899Z,97149.56
2024-02-10T23:50:48.239Z,97152.97
2024-02-10T23:53:15.474Z,97164.06
2024-02-10T23:55:44.436Z,97167.44
2024-02-10T23:58:12.880Z,97166.59
